METAR Analyzer

一覧表示

Hello, Guest. (Login)

RJCC/CTS  -  札幌/新千歳

観測日時
2021-08-05 01:00 (UTC) (30分前)
気温
30
露点
25
湿数
5
相対湿度
74.6%
QNH
1006.8hPa
推定現地気圧
1003.8hPa
推定海面気圧
1006.6hPa
体感温度
25.3
(無風時)
28.7
HI
36.2
気温前日比
±0
体感温度前日比
-1.9
HI前日比
+1.1
水平視程
>10000m
鉛直視程
データなし
雲底高度
No dense clouds
V/I
VMC (VFR)
RVR
No RVR data
卓越風
9kt from 170°
ガスト
No gust
降水
報告なし
その他の天気
報告なし
少しの(1/8) 層雲 @ 1000ft AGL / 散在する(3/8) 高積雲 @ 8000ft AGL

RJCC 050100Z 17009KT 9999 FEW010 SCT080 30/25 Q1006 RMK 1ST010 3AC080 A2973

RJTT/HND  -  東京/羽田

観測日時
2021-08-05 01:00 (UTC) (30分前)
気温
31
露点
24
湿数
7
相対湿度
66.4%
QNH
1008.8hPa
推定現地気圧
1008.1hPa
推定海面気圧
1008.8hPa
体感温度
26.5
(無風時)
28.8
HI
36.5
気温前日比
-1
体感温度前日比
-0.8
HI前日比
-4.2
水平視程
>10000m
鉛直視程
データなし
雲底高度
No dense clouds
V/I
VMC (VFR)
RVR
No RVR data
卓越風
5kt from 110°
ガスト
No gust
降水
報告なし
その他の天気
報告なし
少しの(1/8) 積雲 @ 2000ft AGL

RJTT 050100Z 11005KT 9999 FEW020 31/24 Q1008 NOSIG RMK 1CU020 A2979

RJAA/NRT  -  東京/成田

観測日時
2021-08-05 01:00 (UTC) (30分前)
気温
29
露点
25
湿数
4
相対湿度
79.1%
QNH
1009.1hPa
推定現地気圧
1007.8hPa
推定海面気圧
1009.1hPa
体感温度
25.4
(無風時)
28.2
HI
34.5
気温前日比
-2
体感温度前日比
-1.3
HI前日比
-3.2
水平視程
>10000m
鉛直視程
データなし
雲底高度
No dense clouds
V/I
VMC (VFR)
RVR
No RVR data
卓越風
4kt from 100° (20° ~ 160°)
ガスト
No gust
降水
報告なし
その他の天気
報告なし
散在する(3/8) 積雲 @ 2500ft AGL

RJAA 050100Z 10004KT 020V160 9999 SCT025 29/25 Q1009 NOSIG RMK 3CU025 A2980

RJGG/NGO  -  名古屋/中部

観測日時
2021-08-05 01:00 (UTC) (30分前)
気温
30
露点
25
湿数
5
相対湿度
74.6%
QNH
1007.5hPa
推定現地気圧
1007.0hPa
推定海面気圧
1007.5hPa
体感温度
25.8
(無風時)
28.7
HI
36.2
気温前日比
+1
体感温度前日比
+0.4
HI前日比
+1.7
水平視程
>10000m
鉛直視程
データなし
雲底高度
No dense clouds
V/I
VMC (VFR)
RVR
No RVR data
卓越風
6kt from 220°
ガスト
No gust
降水
報告なし
その他の天気
報告なし
少しの(1/8) 積雲 @ 2500ft AGL

RJGG 050100Z 22006KT 9999 FEW025 30/25 Q1007 NOSIG RMK 1CU025 A2975

RJOO/ITM  -  大阪/伊丹

観測日時
2021-08-05 01:00 (UTC) (30分前)
気温
33
露点
25
湿数
8
相対湿度
63%
QNH
1007.1hPa
推定現地気圧
1005.7hPa
推定海面気圧
1007.0hPa
体感温度
28.8
(無風時)
30
HI
40.6
気温前日比
+1
体感温度前日比
+1.1
HI前日比
+1.4
水平視程
>10000m
鉛直視程
データなし
雲底高度
No dense clouds
V/I
VMC (VFR)
RVR
No RVR data
卓越風
3kt from 40° (310° ~ 120°)
ガスト
No gust
降水
報告なし
その他の天気
報告なし
少しの(1/8) 積雲 @ 2500ft AGL

RJOO 050100Z 04003KT 310V120 9999 FEW025 33/25 Q1007 RMK 1CU025 A2974

RJBB/KIX  -  大阪/関西

観測日時
2021-08-05 01:00 (UTC) (30分前)
気温
28
露点
26
湿数
2
相対湿度
88.9%
QNH
1007hPa
推定現地気圧
1006.4hPa
推定海面気圧
1007.0hPa
体感温度
24.2
(無風時)
28.1
HI
33.8
気温前日比
-1
体感温度前日比
-0.9
HI前日比
-0.7
水平視程
>10000m
鉛直視程
データなし
雲底高度
No dense clouds
V/I
VMC (VFR)
RVR
No RVR data
卓越風
6kt from 300°
ガスト
No gust
降水
報告なし
その他の天気
報告なし
少しの雲 @ 2000ft AGL

RJBB 050100Z 30006KT 9999 FEW020 28/26 Q1007 NOSIG

RJFF/FUK  -  福岡

観測日時
2021-08-05 01:00 (UTC) (30分前)
気温
33
露点
24
湿数
9
相対湿度
59.3%
QNH
1006.4hPa
推定現地気圧
1005.3hPa
推定海面気圧
1006.3hPa
体感温度
28.5
(無風時)
29.7
HI
39.3
気温前日比
+1
体感温度前日比
+1.6
HI前日比
+4.4
水平視程
>10000m
鉛直視程
データなし
雲底高度
No dense clouds
V/I
VMC (VFR)
RVR
No RVR data
卓越風
3kt from VRB
ガスト
No gust
降水
報告なし
その他の天気
報告なし
少しの(1/8) 積雲 @ 2500ft AGL

RJFF 050100Z VRB03KT 9999 FEW025 33/24 Q1006 BECMG FM0130 TL0230 32009KT RMK 1CU025 A2972

ROAH/OKA  -  那覇

観測日時
2021-08-05 01:00 (UTC) (30分前)
気温
27
露点
26
湿数
1
相対湿度
94.3%
QNH
994.9hPa
推定現地気圧
994.5hPa
推定海面気圧
994.8hPa
体感温度
21.5
(無風時)
27.6
HI
31.9
気温前日比
-3
体感温度前日比
-3.4
HI前日比
-4.9
水平視程
6000m
鉛直視程
データなし
雲底高度
1500ft AGL
V/I
VMC (VFR)
RVR
No RVR data
卓越風
16kt from 330°
ガスト
No gust
降水
中程度のしゅう雨性の雨
その他の天気
報告なし
散在する(3/8) 層雲 @ 800ft AGL / 隙間のある(5/8) 積雲 @ 1500ft AGL / 少しの(2/8) 積乱雲 @ 2000ft AGL

ROAH 050100Z 33016KT 6000 SHRA SCT008 BKN015 FEW020CB 27/26 Q0995 RMK 3ST008 5CU015 2CB020 A2938 CB 15KM SE MOV N

4.9msec